createdAt,value
2018-05-27T00:00:58.303Z,20.40
2018-05-27T00:03:25.825Z,20.40
2018-05-27T00:05:54.113Z,20.30
2018-05-27T00:08:21.640Z,20.30
2018-05-27T00:10:49.138Z,20.30
2018-05-27T00:13:16.677Z,20.30
2018-05-27T00:15:44.953Z,20.30
2018-05-27T00:18:13.273Z,20.30
2018-05-27T00:20:40.807Z,20.30
2018-05-27T00:23:08.333Z,20.30
2018-05-27T00:25:36.650Z,20.20
2018-05-27T00:28:04.210Z,20.20
2018-05-27T00:30:31.756Z,20.10
2018-05-27T00:32:59.364Z,20.10
2018-05-27T00:35:27.368Z,20.00
2018-05-27T00:37:55.652Z,19.90
2018-05-27T00:40:23.188Z,19.90
2018-05-27T00:42:50.778Z,20.00
2018-05-27T00:45:18.301Z,20.00
2018-05-27T00:47:45.868Z,19.90
2018-05-27T00:50:14.135Z,19.90
2018-05-27T00:52:42.430Z,19.80
2018-05-27T00:55:10.709Z,19.80
2018-05-27T00:57:38.291Z,19.80
2018-05-27T01:00:05.809Z,19.80
2018-05-27T01:02:33.340Z,19.80
2018-05-27T01:05:00.864Z,19.90
2018-05-27T01:07:28.425Z,20.00
2018-05-27T01:09:55.944Z,19.90
2018-05-27T01:12:24.329Z,19.80
2018-05-27T01:14:52.617Z,19.70
2018-05-27T01:17:20.109Z,19.70
2018-05-27T01:19:47.665Z,19.60
2018-05-27T01:22:15.156Z,19.50
2018-05-27T01:24:42.736Z,19.60
2018-05-27T01:27:11.012Z,19.40
2018-05-27T01:29:39.293Z,19.30
2018-05-27T01:32:07.670Z,19.30
2018-05-27T01:34:35.247Z,19.30
2018-05-27T01:37:02.775Z,19.50
2018-05-27T01:39:30.303Z,19.40
2018-05-27T01:41:57.845Z,19.50
2018-05-27T01:44:25.365Z,19.40
2018-05-27T01:46:53.034Z,19.40
2018-05-27T01:49:20.602Z,19.40
2018-05-27T01:51:48.094Z,19.40
2018-05-27T01:54:15.619Z,19.40
2018-05-27T01:56:43.177Z,19.30
2018-05-27T01:59:10.740Z,19.30
2018-05-27T02:01:38.254Z,19.30
2018-05-27T02:04:06.648Z,19.20
2018-05-27T02:06:34.952Z,19.10
2018-05-27T02:09:02.710Z,19.10
2018-05-27T02:11:30.237Z,19.10
2018-05-27T02:13:57.757Z,19.00
2018-05-27T02:16:25.322Z,19.10
2018-05-27T02:18:52.852Z,19.00
2018-05-27T02:21:20.370Z,19.00
2018-05-27T02:23:47.897Z,19.00
2018-05-27T02:26:15.408Z,19.00
2018-05-27T02:28:43.241Z,18.90
2018-05-27T02:31:10.778Z,18.90
2018-05-27T02:33:38.280Z,19.00
2018-05-27T02:36:05.798Z,18.90
2018-05-27T02:38:33.292Z,18.90
2018-05-27T02:41:00.866Z,18.90
2018-05-27T02:43:28.402Z,18.80
2018-05-27T02:45:55.941Z,18.80
2018-05-27T02:48:23.461Z,18.70
2018-05-27T02:50:51.108Z,18.70
2018-05-27T02:53:18.644Z,18.70
2018-05-27T02:55:46.198Z,18.50
2018-05-27T02:58:13.709Z,18.60
2018-05-27T03:00:41.277Z,18.50
2018-05-27T03:03:09.619Z,18.40
2018-05-27T03:05:37.116Z,18.40
2018-05-27T03:08:04.714Z,18.50
2018-05-27T03:10:32.233Z,18.60
2018-05-27T03:12:59.761Z,18.70
2018-05-27T03:15:27.298Z,18.70
2018-05-27T03:17:54.810Z,18.70
2018-05-27T03:20:22.396Z,18.60
2018-05-27T03:22:49.909Z,18.50
2018-05-27T03:25:17.475Z,18.40
2018-05-27T03:27:44.988Z,18.40
2018-05-27T03:30:12.540Z,18.30
2018-05-27T03:32:40.065Z,18.50
2018-05-27T03:35:07.718Z,18.70
2018-05-27T03:37:35.995Z,18.70
2018-05-27T03:40:03.497Z,18.70
2018-05-27T03:42:31.030Z,18.80
2018-05-27T03:44:59.326Z,18.80
2018-05-27T03:47:26.853Z,18.80
2018-05-27T03:49:55.270Z,18.90
2018-05-27T03:52:22.801Z,18.90
2018-05-27T03:54:51.110Z,18.70
2018-05-27T03:57:18.612Z,18.70
2018-05-27T03:59:46.171Z,18.80
2018-05-27T04:02:14.443Z,18.70
2018-05-27T04:05:02.735Z,18.70
2018-05-27T04:07:42.037Z,18.80
2018-05-27T04:10:10.359Z,18.90
2018-05-27T04:12:38.010Z,18.90
2018-05-27T04:15:05.505Z,18.90
2018-05-27T04:17:33.045Z,18.90
2018-05-27T04:20:00.687Z,18.90
2018-05-27T04:22:28.236Z,19.10
2018-05-27T04:24:55.740Z,19.30
2018-05-27T04:27:23.353Z,19.20
2018-05-27T04:29:50.918Z,19.30
2018-05-27T04:32:18.440Z,19.50
2018-05-27T04:34:46.749Z,19.70
2018-05-27T04:37:14.288Z,19.70
2018-05-27T04:39:42.600Z,21.10
2018-05-27T04:42:10.148Z,21.10
2018-05-27T04:44:37.681Z,21.00
2018-05-27T04:47:06.081Z,21.90
2018-05-27T04:49:33.611Z,21.90
2018-05-27T04:52:01.115Z,22.20
2018-05-27T04:54:28.655Z,22.60
2018-05-27T04:56:56.146Z,22.80
2018-05-27T04:59:23.666Z,23.30
2018-05-27T05:01:51.224Z,23.00
2018-05-27T05:04:18.749Z,22.80
2018-05-27T05:06:47.083Z,21.50
2018-05-27T05:09:14.722Z,21.40
2018-05-27T05:11:42.308Z,21.90
2018-05-27T05:14:09.821Z,22.70
2018-05-27T05:16:37.367Z,22.00
2018-05-27T05:19:05.623Z,21.70
2018-05-27T05:21:33.155Z,21.70
2018-05-27T05:24:00.667Z,21.70
2018-05-27T05:26:28.263Z,21.60
2018-05-27T05:28:55.786Z,21.40
2018-05-27T05:31:24.081Z,20.60
2018-05-27T05:33:51.611Z,20.60
2018-05-27T05:36:19.974Z,20.50
2018-05-27T05:38:48.269Z,20.50
2018-05-27T05:41:15.923Z,20.50
2018-05-27T05:43:44.315Z,20.60
2018-05-27T05:46:12.561Z,20.90
2018-05-27T05:48:40.877Z,20.90
2018-05-27T05:51:08.403Z,20.90
2018-05-27T05:53:36.716Z,21.70
2018-05-27T05:56:04.254Z,21.70
2018-05-27T05:58:32.559Z,21.90
2018-05-27T06:01:00.080Z,21.90
2018-05-27T06:03:28.352Z,21.90
2018-05-27T06:05:57.416Z,21.80
2018-05-27T06:08:24.932Z,21.80
2018-05-27T06:10:53.804Z,21.60
2018-05-27T06:13:21.339Z,21.70
2018-05-27T06:15:49.616Z,22.00
2018-05-27T06:18:18.798Z,21.90
2018-05-27T06:20:46.317Z,21.90
2018-05-27T06:23:13.835Z,21.90
2018-05-27T06:25:42.245Z,22.80
2018-05-27T06:28:10.493Z,23.60
2018-05-27T06:30:38.074Z,23.60
2018-05-27T06:33:05.613Z,23.40
2018-05-27T06:35:33.321Z,23.70
2018-05-27T06:38:00.816Z,23.70
2018-05-27T06:40:29.120Z,25.60
2018-05-27T06:42:56.712Z,25.50
2018-05-27T06:45:24.242Z,23.80
2018-05-27T06:47:51.809Z,22.90
2018-05-27T06:50:19.352Z,24.90
2018-05-27T06:52:46.885Z,26.20
2018-05-27T06:55:15.268Z,25.60
2018-05-27T06:57:43.885Z,25.70
2018-05-27T07:00:11.405Z,25.70
2018-05-27T07:02:39.682Z,24.70
2018-05-27T07:05:07.976Z,25.00
2018-05-27T07:07:35.529Z,24.90
2018-05-27T07:10:03.868Z,24.70
2018-05-27T07:12:31.383Z,24.70
2018-05-27T07:14:58.939Z,25.20
2018-05-27T07:17:26.452Z,26.40
2018-05-27T07:19:54.056Z,28.50
2018-05-27T07:22:21.689Z,26.70
2018-05-27T07:24:49.221Z,27.30
2018-05-27T07:27:16.776Z,27.90
2018-05-27T07:29:44.336Z,27.00
2018-05-27T07:32:12.002Z,27.80
2018-05-27T07:34:39.481Z,28.10
2018-05-27T07:37:07.757Z,26.40
2018-05-27T07:39:36.105Z,27.00
2018-05-27T07:42:03.767Z,27.00
2018-05-27T07:44:31.323Z,27.60
2018-05-27T07:46:58.958Z,26.10
2018-05-27T07:49:26.472Z,27.40
2018-05-27T07:51:53.998Z,28.90
2018-05-27T07:54:21.505Z,27.80
2018-05-27T07:56:49.059Z,28.10
2018-05-27T07:59:16.587Z,28.40
2018-05-27T08:01:45.213Z,27.90
2018-05-27T08:04:12.700Z,27.90
2018-05-27T08:06:40.230Z,29.50
2018-05-27T08:09:07.763Z,29.70
2018-05-27T08:11:35.276Z,30.60
2018-05-27T08:14:02.823Z,30.70
2018-05-27T08:16:30.333Z,29.70
2018-05-27T08:18:57.916Z,30.90
2018-05-27T08:21:25.418Z,30.30
2018-05-27T08:23:53.036Z,30.60
2018-05-27T08:26:20.561Z,30.60
2018-05-27T08:28:48.944Z,29.40
2018-05-27T08:31:17.250Z,30.20
2018-05-27T08:33:44.767Z,30.10
2018-05-27T08:36:13.081Z,31.30
2018-05-27T08:38:42.301Z,32.30
2018-05-27T08:41:10.099Z,32.20
2018-05-27T08:43:38.400Z,29.20
2018-05-27T08:46:06.462Z,29.10
2018-05-27T08:48:34.832Z,29.10
2018-05-27T08:51:03.139Z,28.80
2018-05-27T08:53:30.887Z,28.70
2018-05-27T08:55:58.436Z,27.90
2018-05-27T08:58:26.129Z,29.50
2018-05-27T09:00:53.667Z,29.40
2018-05-27T09:03:21.195Z,29.80
2018-05-27T09:05:49.492Z,28.30
2018-05-27T09:08:17.062Z,28.30
2018-05-27T09:10:44.594Z,28.50
2018-05-27T09:13:12.890Z,28.30
2018-05-27T09:15:40.415Z,28.30
2018-05-27T09:18:07.981Z,28.50
2018-05-27T09:20:36.468Z,30.70
2018-05-27T09:23:04.792Z,29.70
2018-05-27T09:25:32.301Z,29.70
2018-05-27T09:28:00.615Z,28.50
2018-05-27T09:30:28.153Z,28.40
2018-05-27T09:32:55.727Z,27.70
2018-05-27T09:35:23.282Z,28.00
2018-05-27T09:37:50.857Z,29.40
2018-05-27T09:40:18.365Z,30.00
2018-05-27T09:42:45.897Z,28.20
2018-05-27T09:45:13.460Z,29.10
2018-05-27T09:47:40.998Z,27.80
2018-05-27T09:50:08.598Z,28.70
2018-05-27T09:52:36.872Z,29.10
2018-05-27T09:55:04.453Z,29.10
2018-05-27T09:57:31.982Z,28.20
2018-05-27T10:00:00.275Z,28.80
2018-05-27T10:02:27.834Z,28.80
2018-05-27T10:04:56.143Z,30.80
2018-05-27T10:07:23.918Z,30.80
2018-05-27T10:09:51.458Z,30.80
2018-05-27T10:12:19.006Z,32.10
2018-05-27T10:14:46.512Z,29.60
2018-05-27T10:17:14.033Z,29.60
2018-05-27T10:19:41.695Z,31.20
2018-05-27T10:22:09.255Z,30.50
2018-05-27T10:24:36.826Z,32.20
2018-05-27T10:27:04.370Z,32.30
2018-05-27T10:29:31.971Z,31.40
2018-05-27T10:31:59.464Z,29.20
2018-05-27T10:34:27.778Z,28.10
2018-05-27T10:36:56.033Z,28.00
2018-05-27T10:39:23.613Z,28.70
2018-05-27T10:41:51.166Z,28.20
2018-05-27T10:44:18.685Z,28.00
2018-05-27T10:46:46.233Z,27.80
2018-05-27T10:49:13.782Z,27.90
2018-05-27T10:51:42.056Z,28.10
2018-05-27T10:54:11.134Z,27.80
2018-05-27T10:56:39.110Z,27.80
2018-05-27T10:59:07.873Z,27.50
2018-05-27T11:01:35.420Z,27.40
2018-05-27T11:04:03.693Z,27.20
2018-05-27T11:06:31.233Z,27.20
2018-05-27T11:08:58.777Z,26.90
2018-05-27T11:11:26.455Z,26.80
2018-05-27T11:13:54.303Z,26.70
2018-05-27T11:16:21.853Z,26.80
2018-05-27T11:18:50.358Z,26.70
2018-05-27T11:21:17.869Z,26.60
2018-05-27T11:23:45.400Z,26.50
2018-05-27T11:26:12.924Z,26.40
2018-05-27T11:28:40.431Z,26.20
2018-05-27T11:31:08.035Z,26.20
2018-05-27T11:33:36.303Z,26.20
2018-05-27T11:36:03.818Z,26.20
2018-05-27T11:38:31.333Z,26.20
2018-05-27T11:40:58.997Z,26.10
2018-05-27T11:43:26.599Z,25.90
2018-05-27T11:45:54.097Z,25.70
2018-05-27T11:48:21.634Z,25.50
2018-05-27T11:50:49.984Z,25.00
2018-05-27T11:53:17.524Z,24.90
2018-05-27T11:55:45.045Z,24.70
2018-05-27T11:58:12.906Z,24.60
2018-05-27T12:00:40.485Z,24.50
2018-05-27T12:03:08.013Z,24.40
2018-05-27T12:05:36.326Z,24.30
2018-05-27T12:08:03.888Z,24.30
2018-05-27T12:10:31.445Z,24.20
2018-05-27T12:12:59.004Z,24.20
2018-05-27T12:15:26.559Z,23.90
2018-05-27T12:17:54.076Z,23.70
2018-05-27T12:20:21.621Z,23.80
2018-05-27T12:22:49.648Z,23.90
2018-05-27T12:25:17.211Z,23.70
2018-05-27T12:27:44.864Z,23.80
2018-05-27T12:30:12.518Z,24.00
2018-05-27T12:32:40.076Z,24.10
2018-05-27T12:35:07.587Z,24.10
2018-05-27T12:37:36.629Z,24.40
2018-05-27T12:40:04.196Z,24.40
2018-05-27T12:42:31.719Z,24.60
2018-05-27T12:45:00.038Z,25.10
2018-05-27T12:47:27.695Z,25.10
2018-05-27T12:49:55.269Z,25.50
2018-05-27T12:52:22.765Z,25.60
2018-05-27T12:54:51.080Z,25.70
2018-05-27T12:57:18.606Z,25.70
2018-05-27T12:59:46.198Z,26.00
2018-05-27T13:02:13.723Z,26.00
2018-05-27T13:04:42.067Z,25.80
2018-05-27T13:07:09.613Z,25.80
2018-05-27T13:09:37.168Z,25.70
2018-05-27T13:12:04.704Z,25.90
2018-05-27T13:14:32.236Z,26.10
2018-05-27T13:17:00.718Z,26.30
2018-05-27T13:19:28.079Z,26.30
2018-05-27T13:21:55.659Z,26.40
2018-05-27T13:24:23.173Z,26.80
2018-05-27T13:26:50.694Z,26.70
2018-05-27T13:29:18.343Z,26.30
2018-05-27T13:31:45.920Z,26.20
2018-05-27T13:34:13.453Z,26.50
2018-05-27T13:36:41.017Z,27.00
2018-05-27T13:39:08.565Z,26.50
2018-05-27T13:41:36.069Z,26.20
2018-05-27T13:44:03.612Z,26.20
2018-05-27T13:46:31.105Z,26.40
2018-05-27T13:48:59.416Z,26.80
2018-05-27T13:51:26.939Z,26.70
2018-05-27T13:53:55.329Z,27.30
2018-05-27T13:56:22.898Z,27.30
2018-05-27T13:58:50.455Z,27.30
2018-05-27T14:01:17.984Z,27.20
2018-05-27T14:03:45.570Z,27.60
2018-05-27T14:06:13.176Z,27.80
2018-05-27T14:08:40.671Z,27.80
2018-05-27T14:11:08.982Z,27.70
2018-05-27T14:13:36.539Z,27.60
2018-05-27T14:16:04.080Z,27.70
2018-05-27T14:18:31.699Z,27.40
2018-05-27T14:20:59.997Z,27.20
2018-05-27T14:23:28.314Z,27.20
2018-05-27T14:25:55.828Z,27.20
2018-05-27T14:28:24.122Z,27.20
2018-05-27T14:30:51.637Z,27.20
2018-05-27T14:33:19.215Z,27.10
2018-05-27T14:35:47.488Z,27.20
2018-05-27T14:38:15.784Z,26.80
2018-05-27T14:43:17.377Z,26.90
2018-05-27T14:45:44.900Z,27.20
2018-05-27T14:48:13.230Z,27.40
2018-05-27T14:50:40.796Z,27.40
2018-05-27T14:53:08.413Z,27.90
2018-05-27T14:55:35.961Z,27.70
2018-05-27T14:58:04.400Z,27.70
2018-05-27T15:00:31.906Z,27.70
2018-05-27T15:02:59.448Z,27.90
2018-05-27T15:05:27.706Z,28.00
2018-05-27T15:07:55.229Z,28.00
2018-05-27T15:10:22.775Z,28.40
2018-05-27T15:12:50.345Z,28.20
2018-05-27T15:15:17.998Z,27.50
2018-05-27T15:17:45.545Z,27.10
2018-05-27T15:20:13.076Z,26.90
2018-05-27T15:22:41.372Z,26.70
2018-05-27T15:25:09.001Z,26.70
2018-05-27T15:27:36.597Z,26.60
2018-05-27T15:30:04.157Z,26.40
2018-05-27T15:32:31.770Z,26.20
2018-05-27T15:34:59.321Z,26.20
2018-05-27T15:37:26.827Z,26.20
2018-05-27T15:39:54.374Z,26.20
2018-05-27T15:42:21.968Z,26.20
2018-05-27T15:44:49.527Z,26.10
2018-05-27T15:47:17.140Z,25.60
2018-05-27T15:49:45.427Z,24.60
2018-05-27T15:52:13.766Z,24.20
2018-05-27T15:54:41.310Z,24.20
2018-05-27T15:57:08.833Z,24.00
2018-05-27T15:59:36.477Z,23.90
2018-05-27T16:02:04.154Z,23.80
2018-05-27T16:04:31.748Z,23.90
2018-05-27T16:06:59.332Z,23.90
2018-05-27T16:09:26.892Z,23.90
2018-05-27T16:11:55.181Z,24.10
2018-05-27T16:14:23.464Z,24.20
2018-05-27T16:16:51.120Z,24.10
2018-05-27T16:19:18.707Z,24.20
2018-05-27T16:21:46.265Z,24.20
2018-05-27T16:24:13.808Z,24.20
2018-05-27T16:26:43.219Z,24.10
2018-05-27T16:29:10.817Z,24.10
2018-05-27T16:31:38.293Z,24.00
2018-05-27T16:34:07.495Z,24.10
2018-05-27T16:36:37.510Z,24.10
2018-05-27T16:39:07.125Z,24.30
2018-05-27T16:41:34.831Z,24.30
2018-05-27T16:44:02.410Z,24.30
2018-05-27T16:46:29.944Z,24.40
2018-05-27T16:48:57.463Z,24.50
2018-05-27T16:51:25.965Z,24.40
2018-05-27T16:53:54.255Z,24.30
2018-05-27T16:56:21.936Z,24.30
2018-05-27T16:58:49.796Z,24.30
2018-05-27T17:01:17.396Z,24.30
2018-05-27T17:03:44.970Z,24.20
2018-05-27T17:06:14.707Z,24.20
2018-05-27T17:08:42.307Z,24.20
2018-05-27T17:11:09.915Z,24.20
2018-05-27T17:13:37.850Z,24.10
2018-05-27T17:16:05.376Z,24.00
2018-05-27T17:18:32.953Z,23.90
2018-05-27T17:21:00.572Z,23.90
2018-05-27T17:23:28.868Z,23.80
2018-05-27T17:25:56.418Z,23.80
2018-05-27T17:28:23.978Z,23.80
2018-05-27T17:30:51.621Z,23.90
2018-05-27T17:33:19.342Z,23.90
2018-05-27T17:35:47.640Z,23.80
2018-05-27T17:38:15.196Z,23.80
2018-05-27T17:40:42.805Z,23.80
2018-05-27T17:43:10.417Z,23.80
2018-05-27T17:45:37.995Z,23.70
2018-05-27T17:48:11.335Z,23.70
2018-05-27T17:50:38.863Z,23.60
2018-05-27T17:53:06.415Z,23.50
2018-05-27T17:55:34.008Z,23.60
2018-05-27T17:58:01.544Z,23.60
2018-05-27T18:00:29.211Z,23.50
2018-05-27T18:02:56.755Z,23.50
2018-05-27T18:05:24.394Z,23.40
2018-05-27T18:07:51.911Z,23.30
2018-05-27T18:10:19.518Z,23.20
2018-05-27T18:12:47.010Z,23.20
2018-05-27T18:15:14.685Z,23.10
2018-05-27T18:17:42.205Z,22.90
2018-05-27T18:20:09.769Z,22.80
2018-05-27T18:22:37.281Z,22.70
2018-05-27T18:25:04.866Z,22.50
2018-05-27T18:27:32.591Z,22.50
2018-05-27T18:30:00.656Z,22.30
2018-05-27T18:32:28.168Z,22.30
2018-05-27T18:34:55.827Z,22.20
2018-05-27T18:37:23.380Z,22.00
2018-05-27T18:39:50.991Z,22.00
2018-05-27T18:42:18.537Z,21.90
2018-05-27T18:44:46.288Z,21.80
2018-05-27T18:47:13.848Z,21.50
2018-05-27T18:49:41.408Z,21.30
2018-05-27T18:52:09.000Z,21.20
2018-05-27T18:54:37.285Z,21.20
2018-05-27T18:57:04.837Z,21.20
2018-05-27T18:59:33.175Z,21.10
2018-05-27T19:02:00.887Z,21.10
2018-05-27T19:04:28.403Z,21.10
2018-05-27T19:06:55.958Z,20.80
2018-05-27T19:09:23.558Z,20.80
2018-05-27T19:11:51.823Z,20.60
2018-05-27T19:14:20.162Z,20.70
2018-05-27T19:16:47.745Z,20.60
2018-05-27T19:19:15.388Z,20.50
2018-05-27T19:21:42.921Z,20.60
2018-05-27T19:24:10.454Z,20.60
2018-05-27T19:26:38.028Z,20.60
2018-05-27T19:29:05.559Z,20.40
2018-05-27T19:31:33.900Z,20.50
2018-05-27T19:34:01.460Z,20.40
2018-05-27T19:36:29.053Z,20.40
2018-05-27T19:39:10.463Z,20.20
2018-05-27T19:41:38.058Z,20.10
2018-05-27T19:44:05.656Z,20.20
2018-05-27T19:46:33.189Z,20.00
2018-05-27T19:49:00.797Z,20.10
2018-05-27T19:51:28.279Z,20.10
2018-05-27T19:53:55.847Z,20.10
2018-05-27T19:56:23.424Z,20.10
2018-05-27T19:58:51.033Z,20.20
2018-05-27T20:01:21.140Z,20.20
2018-05-27T20:03:48.658Z,20.10
2018-05-27T20:06:16.288Z,19.90
2018-05-27T20:08:43.813Z,19.90
2018-05-27T20:11:11.480Z,20.00
2018-05-27T20:13:39.035Z,20.00
2018-05-27T20:16:06.916Z,20.20
2018-05-27T20:18:34.463Z,20.00
2018-05-27T20:21:02.037Z,20.00
2018-05-27T20:23:29.608Z,19.90
2018-05-27T20:25:57.136Z,19.60
2018-05-27T20:28:24.817Z,19.70
2018-05-27T20:30:52.442Z,19.90
2018-05-27T20:33:20.278Z,20.00
2018-05-27T20:35:47.913Z,20.00
2018-05-27T20:38:15.441Z,20.00
2018-05-27T20:40:43.006Z,19.90
2018-05-27T20:43:10.550Z,19.90
2018-05-27T20:45:38.084Z,20.00
2018-05-27T20:48:06.392Z,20.10
2018-05-27T20:50:33.957Z,20.00
2018-05-27T20:53:01.558Z,20.00
2018-05-27T20:55:29.094Z,20.10
2018-05-27T20:57:56.623Z,19.90
2018-05-27T21:00:24.248Z,19.80
2018-05-27T21:02:51.754Z,19.80
2018-05-27T21:05:19.267Z,19.90
2018-05-27T21:07:46.846Z,19.70
2018-05-27T21:10:14.375Z,19.60
2018-05-27T21:12:41.899Z,19.40
2018-05-27T21:15:09.427Z,19.40
2018-05-27T21:17:37.003Z,19.40
2018-05-27T21:22:34.466Z,19.30
2018-05-27T21:25:01.979Z,19.30
2018-05-27T21:27:29.516Z,19.30
2018-05-27T21:29:57.075Z,19.30
2018-05-27T21:32:24.640Z,19.20
2018-05-27T21:34:52.158Z,19.20
2018-05-27T21:37:19.761Z,19.30
2018-05-27T21:39:47.473Z,19.20
2018-05-27T21:42:15.048Z,19.30
2018-05-27T21:44:42.688Z,19.20
2018-05-27T21:47:21.072Z,19.20
2018-05-27T21:49:48.611Z,19.20
2018-05-27T21:52:16.123Z,19.20
2018-05-27T21:54:43.670Z,19.00
2018-05-27T21:57:11.245Z,18.80
2018-05-27T21:59:38.880Z,18.90
2018-05-27T22:02:07.226Z,19.10
2018-05-27T22:04:35.132Z,19.00
2018-05-27T22:07:02.670Z,19.00
2018-05-27T22:09:30.230Z,19.20
2018-05-27T22:11:58.540Z,19.00
2018-05-27T22:14:26.074Z,19.00
2018-05-27T22:16:54.456Z,19.00
2018-05-27T22:19:22.795Z,18.90
2018-05-27T22:21:50.338Z,18.90
2018-05-27T22:24:17.943Z,19.00
2018-05-27T22:26:46.284Z,18.90
2018-05-27T22:29:13.842Z,18.80
2018-05-27T22:31:41.392Z,18.80
2018-05-27T22:34:08.920Z,18.70
2018-05-27T22:36:36.433Z,18.80
2018-05-27T22:39:04.050Z,18.70
2018-05-27T22:41:31.720Z,18.70
2018-05-27T22:43:59.406Z,18.70
2018-05-27T22:46:26.940Z,18.70
2018-05-27T22:48:54.496Z,18.50
2018-05-27T22:51:22.077Z,18.40
2018-05-27T22:53:49.610Z,18.40
2018-05-27T22:56:17.180Z,18.40
2018-05-27T22:58:44.809Z,18.40
2018-05-27T23:01:12.366Z,18.50
2018-05-27T23:03:39.919Z,18.50
2018-05-27T23:06:07.499Z,18.50
2018-05-27T23:08:35.021Z,18.50
2018-05-27T23:11:02.610Z,18.40
2018-05-27T23:13:30.132Z,18.50
2018-05-27T23:15:58.410Z,18.30
2018-05-27T23:18:26.723Z,18.30
2018-05-27T23:20:54.224Z,18.30
2018-05-27T23:23:21.742Z,18.30
2018-05-27T23:25:49.251Z,18.30
2018-05-27T23:28:17.586Z,18.20
2018-05-27T23:30:45.379Z,18.10
2018-05-27T23:33:13.059Z,18.10
2018-05-27T23:35:41.679Z,18.10
2018-05-27T23:38:09.524Z,18.10
2018-05-27T23:40:38.028Z,18.10
2018-05-27T23:43:05.559Z,18.10
2018-05-27T23:45:33.139Z,18.10
2018-05-27T23:48:00.653Z,18.20
2018-05-27T23:50:29.208Z,18.40
2018-05-27T23:52:56.730Z,18.40
2018-05-27T23:55:24.368Z,18.40
2018-05-27T23:57:52.701Z,18.20
